Time;durP1;ratioP1;P1;durP2;ratioP2;P2;SDS_P1;SDS_P2;PMS_P1;PMS_P2;Temp;Humidity;BMP_temperature;BMP_pressure;BME280_temperature;BME280_humidity;BME280_pressure;Samples;Min_cycle;Max_cycle;Signal;HPM_P1;HPM_P2
2022/08/30 00:03:09;;;;;;;5.78;3.40;;;17.10;99.90;;;;;;4987741;28;20120;-64
2022/08/30 00:05:35;;;;;;;6.07;2.88;;;17.10;99.90;;;;;;5003438;28;20069;-64
2022/08/30 00:08:01;;;;;;;7.85;2.97;;;17.20;99.90;;;;;;4988132;28;20038;-64
2022/08/30 00:10:28;;;;;;;4.63;2.75;;;17.20;99.90;;;;;;4994120;28;20054;-63
2022/08/30 00:12:55;;;;;;;10.88;3.15;;;17.20;99.90;;;;;;4998466;28;20483;-63
2022/08/30 00:15:21;;;;;;;15.02;4.78;;;17.20;99.90;;;;;;5001861;28;20053;-64
2022/08/30 00:17:47;;;;;;;6.95;2.90;;;17.40;99.90;;;;;;4998052;28;20069;-64
2022/08/30 00:20:17;;;;;;;7.03;2.97;;;17.30;99.90;;;;;;4990266;28;20042;-64
2022/08/30 00:22:43;;;;;;;6.97;3.50;;;17.40;99.90;;;;;;4993539;28;20049;-64
2022/08/30 00:25:09;;;;;;;9.23;3.00;;;17.40;99.90;;;;;;5006905;28;20069;-64
2022/08/30 00:27:35;;;;;;;6.05;3.25;;;17.30;99.90;;;;;;5008161;28;20575;-64
2022/08/30 00:30:01;;;;;;;11.45;3.80;;;17.30;99.90;;;;;;4994378;28;20042;-64
2022/08/30 00:32:27;;;;;;;7.35;3.00;;;17.30;99.90;;;;;;5000969;28;20041;-64
2022/08/30 00:34:53;;;;;;;5.88;3.45;;;17.30;99.90;;;;;;5009587;28;20050;-64
2022/08/30 00:37:19;;;;;;;6.97;3.50;;;17.40;99.90;;;;;;5003522;28;20030;-64
2022/08/30 00:39:45;;;;;;;6.97;3.45;;;17.60;99.90;;;;;;4994881;28;20042;-64
2022/08/30 00:42:12;;;;;;;5.78;2.90;;;17.70;99.90;;;;;;4994952;28;20037;-64
2022/08/30 00:44:40;;;;;;;7.95;3.60;;;17.50;99.90;;;;;;5000200;28;20139;-64
2022/08/30 00:47:06;;;;;;;5.93;3.28;;;17.30;99.90;;;;;;5003844;28;20038;-64
2022/08/30 00:49:35;;;;;;;6.25;3.30;;;17.30;99.90;;;;;;4994594;28;20142;-64
2022/08/30 00:52:01;;;;;;;9.88;3.40;;;17.50;99.90;;;;;;4995192;28;20136;-64
2022/08/30 00:54:28;;;;;;;5.85;3.55;;;17.50;99.90;;;;;;5005152;28;20048;-64
2022/08/30 00:56:54;;;;;;;4.85;3.13;;;17.40;99.90;;;;;;4995876;28;20403;-63
2022/08/30 00:59:20;;;;;;;4.65;3.05;;;17.60;99.90;;;;;;4992417;28;20049;-64
2022/08/30 01:01:46;;;;;;;11.75;3.22;;;17.40;99.90;;;;;;4992254;28;20118;-64
2022/08/30 01:04:13;;;;;;;7.95;3.20;;;17.40;99.90;;;;;;4990384;28;20125;-64
2022/08/30 01:06:40;;;;;;;8.93;3.72;;;17.70;99.90;;;;;;4989674;28;20519;-64
2022/08/30 01:09:07;;;;;;;6.18;3.38;;;17.60;99.90;;;;;;4984092;28;20039;-64
2022/08/30 01:11:36;;;;;;;5.47;3.63;;;17.40;99.90;;;;;;4987784;28;20066;-64
2022/08/30 01:14:03;;;;;;;8.02;3.33;;;17.20;99.90;;;;;;5000434;28;20097;-63
2022/08/30 01:16:30;;;;;;;7.07;3.65;;;17.50;99.90;;;;;;5004891;28;20043;-64
2022/08/30 01:18:57;;;;;;;9.93;3.60;;;17.30;99.90;;;;;;4999866;28;20092;-64
2022/08/30 01:21:44;;;;;;;6.88;3.45;;;17.20;99.90;;;;;;4993369;28;20050;-63
2022/08/30 01:24:11;;;;;;;8.05;3.45;;;17.30;99.90;;;;;;5000900;28;20073;-64
2022/08/30 01:26:38;;;;;;;7.30;3.20;;;17.40;99.90;;;;;;4992944;28;20035;-64
2022/08/30 01:29:08;;;;;;;7.97;3.47;;;17.50;99.90;;;;;;5005235;28;20084;-64
2022/08/30 01:31:35;;;;;;;5.55;3.28;;;17.10;99.90;;;;;;5000587;28;20417;-64
2022/08/30 01:34:04;;;;;;;4.63;2.50;;;17.30;99.90;;;;;;4999728;28;20326;-64
2022/08/30 01:36:30;;;;;;;5.40;2.80;;;17.00;99.90;;;;;;5004351;28;20046;-64
2022/08/30 01:38:57;;;;;;;5.93;2.97;;;16.90;99.90;;;;;;4999355;28;20046;-64
2022/08/30 01:41:27;;;;;;;5.18;3.00;;;16.90;99.90;;;;;;4994638;28;20037;-64
2022/08/30 01:43:56;;;;;;;7.22;2.88;;;17.00;99.90;;;;;;5009605;28;20034;-64
2022/08/30 01:46:25;;;;;;;7.47;2.72;;;16.80;99.90;;;;;;4986809;28;20035;-63
2022/08/30 01:48:53;;;;;;;14.95;3.70;;;17.00;99.90;;;;;;5002723;28;20514;-63
2022/08/30 01:51:19;;;;;;;8.35;2.90;;;17.00;99.90;;;;;;4978376;28;20078;-64
2022/08/30 01:53:45;;;;;;;8.52;3.00;;;16.80;99.90;;;;;;4998978;28;20034;-64
2022/08/30 01:56:11;;;;;;;9.55;2.63;;;16.90;99.90;;;;;;4990923;28;20093;-63
2022/08/30 01:58:38;;;;;;;9.98;3.20;;;17.00;99.90;;;;;;4990984;28;20034;-64
2022/08/30 02:01:07;;;;;;;14.25;3.03;;;17.50;99.90;;;;;;4992821;28;20042;-63
2022/08/30 02:03:35;;;;;;;7.15;2.92;;;17.00;99.90;;;;;;4985810;28;20077;-64
2022/08/30 02:06:06;;;;;;;5.97;2.70;;;17.20;99.90;;;;;;4993377;28;20558;-64
2022/08/30 02:08:32;;;;;;;4.43;2.55;;;17.20;99.90;;;;;;4993320;28;20122;-64
2022/08/30 02:10:58;;;;;;;8.02;2.90;;;17.30;99.90;;;;;;4991398;28;20057;-63
2022/08/30 02:13:27;;;;;;;8.23;3.35;;;17.30;99.90;;;;;;4990990;28;20065;-64
2022/08/30 02:15:53;;;;;;;4.35;2.35;;;17.60;99.90;;;;;;4998263;28;20029;-64
2022/08/30 02:18:20;;;;;;;8.00;2.35;;;17.70;99.90;;;;;;5004963;28;20053;-64
2022/08/30 02:20:45;;;;;;;8.43;2.22;;;17.80;99.90;;;;;;4990959;28;20042;-64
2022/08/30 02:23:11;;;;;;;6.15;2.65;;;17.60;99.90;;;;;;4990969;28;20045;-64
2022/08/30 02:25:37;;;;;;;6.93;2.72;;;17.80;99.90;;;;;;5006654;28;20053;-64
2022/08/30 02:28:04;;;;;;;6.07;2.60;;;17.50;99.90;;;;;;4993486;28;20038;-64
2022/08/30 02:30:30;;;;;;;17.95;4.15;;;17.50;99.90;;;;;;4992315;28;20042;-64
2022/08/30 02:32:56;;;;;;;6.00;2.70;;;17.60;99.90;;;;;;4991940;28;20049;-64
2022/08/30 02:35:21;;;;;;;5.47;2.25;;;17.60;99.90;;;;;;5005550;28;20029;-63
2022/08/30 02:37:47;;;;;;;6.68;2.97;;;17.40;99.90;;;;;;4991598;28;20698;-64
2022/08/30 02:40:12;;;;;;;5.10;2.72;;;17.50;99.90;;;;;;4992617;28;20030;-64
2022/08/30 02:42:38;;;;;;;5.20;2.38;;;17.50;99.90;;;;;;4991972;28;20070;-64
2022/08/30 02:45:04;;;;;;;5.47;2.30;;;17.80;99.90;;;;;;4995945;28;20499;-63
2022/08/30 02:47:30;;;;;;;8.57;2.47;;;17.80;99.90;;;;;;4992054;28;20046;-64
2022/08/30 02:49:55;;;;;;;7.32;2.50;;;17.90;99.90;;;;;;4984283;28;20415;-63
2022/08/30 02:52:21;;;;;;;6.25;1.92;;;18.00;99.90;;;;;;5005864;28;20069;-64
2022/08/30 02:54:47;;;;;;;11.13;2.65;;;17.80;99.90;;;;;;4997338;28;20046;-63
2022/08/30 02:57:12;;;;;;;5.90;2.10;;;18.10;99.90;;;;;;4995231;28;20030;-63
2022/08/30 02:59:42;;;;;;;5.78;2.15;;;17.90;99.90;;;;;;4994433;28;20128;-64
2022/08/30 03:02:09;;;;;;;11.85;2.75;;;17.90;99.90;;;;;;4985831;28;20034;-63
2022/08/30 03:04:35;;;;;;;3.30;1.92;;;17.90;99.90;;;;;;5001092;28;20050;-63
2022/08/30 03:07:00;;;;;;;5.00;1.90;;;18.20;99.90;;;;;;4988897;28;20039;-64
2022/08/30 03:09:26;;;;;;;7.40;2.15;;;18.00;99.90;;;;;;4987529;28;20201;-64
2022/08/30 03:11:52;;;;;;;6.15;2.33;;;18.00;99.90;;;;;;4993441;28;20076;-64
2022/08/30 03:14:17;;;;;;;4.22;2.05;;;18.20;99.90;;;;;;4990544;28;20062;-63
2022/08/30 03:16:43;;;;;;;4.82;2.13;;;18.30;99.90;;;;;;4991929;28;20041;-63
2022/08/30 03:19:09;;;;;;;3.50;1.70;;;18.10;99.90;;;;;;4996257;28;20041;-64
2022/08/30 03:21:36;;;;;;;3.88;1.85;;;18.10;99.90;;;;;;4987871;28;20046;-64
2022/08/30 03:24:02;;;;;;;7.35;2.30;;;18.10;99.90;;;;;;4996529;28;20153;-64
2022/08/30 03:26:27;;;;;;;5.88;2.20;;;18.20;99.90;;;;;;4988418;28;20055;-64
2022/08/30 03:28:53;;;;;;;5.90;1.92;;;18.20;99.90;;;;;;4993053;28;20065;-63
2022/08/30 03:31:18;;;;;;;5.00;2.50;;;18.20;99.90;;;;;;4986337;28;20031;-64
2022/08/30 03:33:44;;;;;;;8.20;2.65;;;18.30;99.90;;;;;;4997309;28;20049;-64
2022/08/30 03:36:10;;;;;;;5.45;2.60;;;18.10;99.90;;;;;;4996807;28;20109;-64
2022/08/30 03:38:37;;;;;;;7.28;2.95;;;18.30;99.90;;;;;;4995159;28;20116;-64
2022/08/30 03:41:03;;;;;;;9.63;3.30;;;18.20;99.90;;;;;;4998509;28;20546;-64
2022/08/30 03:43:29;;;;;;;6.03;2.78;;;18.30;99.90;;;;;;4993716;28;20496;-64
2022/08/30 03:45:55;;;;;;;10.75;2.38;;;18.20;99.90;;;;;;4990829;28;20038;-63
2022/08/30 03:48:20;;;;;;;7.18;2.70;;;18.30;99.90;;;;;;4990103;28;20408;-64
2022/08/30 03:50:46;;;;;;;7.53;3.10;;;18.30;99.90;;;;;;4990967;28;20065;-64
2022/08/30 03:53:11;;;;;;;8.65;3.40;;;18.40;99.90;;;;;;4994320;28;20030;-64
2022/08/30 03:55:37;;;;;;;10.75;4.07;;;18.20;99.90;;;;;;4992688;28;20050;-64
2022/08/30 03:58:02;;;;;;;4.60;3.38;;;18.40;99.90;;;;;;4984201;28;20541;-63
2022/08/30 04:00:28;;;;;;;6.93;3.00;;;18.20;99.90;;;;;;4985701;28;20066;-64
2022/08/30 04:02:53;;;;;;;7.05;3.33;;;18.20;99.90;;;;;;4995276;28;20034;-64
2022/08/30 04:05:19;;;;;;;10.48;2.72;;;18.10;99.90;;;;;;4985281;28;20066;-63
2022/08/30 04:07:45;;;;;;;7.35;2.70;;;18.20;99.90;;;;;;4983232;28;20054;-64
2022/08/30 04:10:10;;;;;;;9.57;2.70;;;18.20;99.90;;;;;;4987266;28;20089;-64
2022/08/30 04:12:37;;;;;;;5.07;2.72;;;18.10;99.90;;;;;;5001339;28;20049;-64
2022/08/30 04:15:04;;;;;;;8.60;3.20;;;17.90;99.90;;;;;;5000272;28;20599;-64
2022/08/30 04:17:29;;;;;;;10.52;2.63;;;17.80;99.90;;;;;;4993893;28;20037;-64
2022/08/30 04:19:55;;;;;;;7.38;2.60;;;17.70;99.90;;;;;;4989615;28;20034;-64
2022/08/30 04:22:20;;;;;;;4.22;2.38;;;17.60;99.90;;;;;;4993267;28;20030;-64
2022/08/30 04:24:46;;;;;;;5.90;2.60;;;17.60;99.90;;;;;;4987362;28;20092;-64
2022/08/30 04:27:12;;;;;;;6.43;2.72;;;17.70;99.90;;;;;;4990353;28;20474;-63
2022/08/30 04:29:37;;;;;;;9.50;3.08;;;17.60;99.90;;;;;;4990040;28;20053;-64
2022/08/30 04:32:03;;;;;;;16.25;3.35;;;17.30;99.90;;;;;;4988724;28;20049;-63
2022/08/30 04:34:29;;;;;;;10.30;3.15;;;17.20;99.90;;;;;;4988183;28;20030;-63
2022/08/30 04:36:54;;;;;;;10.55;3.85;;;17.30;99.90;;;;;;4987254;28;20181;-62
2022/08/30 04:39:20;;;;;;;12.68;3.30;;;17.20;99.90;;;;;;4982648;28;20041;-62
2022/08/30 04:41:45;;;;;;;8.20;2.75;;;17.20;99.90;;;;;;4984953;28;20027;-64
2022/08/30 04:44:11;;;;;;;10.00;3.10;;;17.00;99.90;;;;;;4996081;28;20045;-64
2022/08/30 04:46:37;;;;;;;9.38;3.15;;;16.90;99.90;;;;;;5005701;28;20520;-64
2022/08/30 04:49:03;;;;;;;7.90;3.00;;;16.90;99.90;;;;;;4987795;28;20053;-64
2022/08/30 04:51:29;;;;;;;4.60;2.58;;;17.00;99.90;;;;;;4985959;28;20042;-64
2022/08/30 04:53:55;;;;;;;5.75;3.08;;;17.00;99.90;;;;;;4988135;28;20034;-64
2022/08/30 04:56:22;;;;;;;6.97;3.00;;;17.10;99.90;;;;;;5000192;28;20040;-64
2022/08/30 04:58:51;;;;;;;6.65;3.10;;;17.10;99.90;;;;;;5001112;28;20648;-64
2022/08/30 05:01:25;;;;;;;14.00;3.08;;;17.10;99.90;;;;;;4986528;28;20073;-64
2022/08/30 05:03:53;;;;;;;9.35;2.83;;;17.30;99.90;;;;;;4986384;28;20124;-64
2022/08/30 05:06:20;;;;;;;16.33;3.53;;;17.30;99.90;;;;;;4988564;28;21550;-64
2022/08/30 05:08:46;;;;;;;9.75;3.58;;;17.00;99.90;;;;;;4991229;28;20113;-63
2022/08/30 05:11:12;;;;;;;8.05;3.20;;;17.20;99.90;;;;;;4992214;28;20156;-64
2022/08/30 05:13:37;;;;;;;10.73;3.15;;;17.00;99.90;;;;;;5013953;28;20104;-64
2022/08/30 05:16:05;;;;;;;11.30;3.08;;;17.00;99.90;;;;;;5003048;28;20574;-64
2022/08/30 05:18:32;;;;;;;11.20;3.10;;;17.10;99.90;;;;;;4992943;28;20061;-64
2022/08/30 05:21:14;;;;;;;8.88;3.33;;;16.80;99.90;;;;;;4992259;28;20041;-63
2022/08/30 05:23:41;;;;;;;14.80;3.97;;;16.90;99.90;;;;;;4993216;28;20042;-64
2022/08/30 05:26:10;;;;;;;23.45;3.75;;;16.90;99.90;;;;;;4994033;28;20373;-64
2022/08/30 05:28:35;;;;;;;22.40;3.75;;;17.00;99.90;;;;;;4992077;28;20117;-64
2022/08/30 05:31:02;;;;;;;11.32;4.00;;;16.80;99.90;;;;;;4993692;28;20272;-64
2022/08/30 05:33:28;;;;;;;16.02;3.42;;;16.90;99.90;;;;;;4982943;28;20121;-64
2022/08/30 05:35:53;;;;;;;17.15;3.38;;;16.90;99.90;;;;;;4988099;28;20121;-64
2022/08/30 05:38:19;;;;;;;10.68;3.80;;;16.90;99.90;;;;;;4990709;28;20061;-64
2022/08/30 05:40:45;;;;;;;10.85;3.55;;;16.90;99.90;;;;;;5000739;28;20128;-64
2022/08/30 05:43:10;;;;;;;9.10;3.90;;;16.90;99.90;;;;;;4995276;28;20140;-64
2022/08/30 05:45:36;;;;;;;8.30;3.90;;;16.90;99.90;;;;;;5007025;28;20046;-64
2022/08/30 05:48:03;;;;;;;7.40;3.00;;;16.90;99.90;;;;;;4991995;28;20050;-63
2022/08/30 05:50:29;;;;;;;9.60;3.25;;;16.90;99.90;;;;;;4993745;28;20110;-64
2022/08/30 05:52:54;;;;;;;7.72;3.65;;;17.20;99.90;;;;;;4993996;28;20388;-63
2022/08/30 05:55:20;;;;;;;7.20;3.50;;;17.30;99.90;;;;;;4993458;28;20122;-64
2022/08/30 05:57:46;;;;;;;6.93;3.38;;;17.30;99.90;;;;;;4993536;28;20058;-64
2022/08/30 06:00:16;;;;;;;8.18;3.58;;;17.20;99.90;;;;;;4994180;28;20656;-64
2022/08/30 06:02:42;;;;;;;6.43;3.60;;;17.00;99.90;;;;;;4989445;28;20045;-64
2022/08/30 06:05:08;;;;;;;7.50;3.67;;;17.10;99.90;;;;;;5010819;28;20492;-64
2022/08/30 06:07:34;;;;;;;8.40;3.42;;;17.20;99.90;;;;;;4997241;28;20559;-64
2022/08/30 06:10:00;;;;;;;7.25;3.80;;;17.40;99.90;;;;;;4992407;28;20137;-64
2022/08/30 06:12:26;;;;;;;5.30;3.72;;;17.30;99.90;;;;;;4993420;28;20124;-64
2022/08/30 06:14:51;;;;;;;11.52;3.72;;;17.50;99.90;;;;;;4993302;28;20488;-64
2022/08/30 06:17:17;;;;;;;9.32;3.72;;;17.40;99.90;;;;;;4993187;28;20099;-64
2022/08/30 06:19:42;;;;;;;13.00;4.10;;;17.50;99.90;;;;;;5004971;28;20049;-64
2022/08/30 06:22:08;;;;;;;10.05;3.92;;;17.50;99.90;;;;;;4993331;28;20100;-63
2022/08/30 06:24:35;;;;;;;8.70;3.95;;;17.70;99.90;;;;;;4987462;28;20642;-64
2022/08/30 06:27:01;;;;;;;8.57;3.38;;;17.80;99.90;;;;;;4993264;28;20048;-64
2022/08/30 06:29:26;;;;;;;11.38;3.88;;;17.80;99.90;;;;;;4994221;28;20089;-64
2022/08/30 06:31:52;;;;;;;7.45;4.00;;;18.10;99.90;;;;;;4993493;28;20042;-64
2022/08/30 06:34:18;;;;;;;7.07;3.58;;;17.90;99.90;;;;;;4998607;28;20479;-64
2022/08/30 06:36:44;;;;;;;7.38;3.60;;;18.10;99.90;;;;;;4992479;28;20038;-64
2022/08/30 06:39:10;;;;;;;9.73;3.80;;;18.00;99.90;;;;;;4997458;28;20048;-64
2022/08/30 06:41:38;;;;;;;8.73;3.85;;;18.10;99.90;;;;;;4993568;28;20380;-64
2022/08/30 06:44:05;;;;;;;6.55;3.28;;;18.20;99.90;;;;;;4999261;28;20045;-63
2022/08/30 06:46:32;;;;;;;12.32;3.50;;;18.20;99.90;;;;;;4999183;28;20170;-63
2022/08/30 06:48:59;;;;;;;5.22;3.22;;;18.40;99.90;;;;;;5001338;28;20508;-63
2022/08/30 06:51:28;;;;;;;4.07;2.97;;;18.40;99.90;;;;;;4991967;28;20112;-63
2022/08/30 06:53:55;;;;;;;7.53;3.22;;;18.40;99.90;;;;;;4994095;28;20093;-63
2022/08/30 06:56:22;;;;;;;4.45;3.55;;;18.50;99.90;;;;;;4991855;28;20472;-64
2022/08/30 06:58:48;;;;;;;7.70;3.28;;;19.00;99.90;;;;;;4999316;28;20034;-63
2022/08/30 07:01:15;;;;;;;7.53;3.10;;;18.60;99.90;;;;;;5000076;28;20065;-63
2022/08/30 07:03:41;;;;;;;5.25;3.00;;;18.60;99.90;;;;;;4993151;28;20064;-63
2022/08/30 07:06:07;;;;;;;6.80;3.17;;;18.60;99.90;;;;;;4996570;28;20035;-63
2022/08/30 07:08:33;;;;;;;7.30;3.38;;;18.90;99.90;;;;;;4992386;28;20038;-64
2022/08/30 07:10:59;;;;;;;9.20;3.05;;;18.90;99.90;;;;;;4998244;28;20057;-63
2022/08/30 07:13:27;;;;;;;6.63;3.08;;;18.80;99.90;;;;;;4992565;28;20096;-64
2022/08/30 07:15:52;;;;;;;6.93;2.78;;;19.00;99.90;;;;;;4991163;28;20065;-63
2022/08/30 07:21:12;;;;;;;5.55;3.20;;;19.20;99.90;;;;;;4992613;28;20519;-63
2022/08/30 07:23:38;;;;;;;5.20;3.07;;;19.20;99.90;;;;;;4990787;28;20389;-63
2022/08/30 07:26:10;;;;;;;5.95;2.45;;;19.20;99.90;;;;;;4992325;28;20046;-64
2022/08/30 07:28:37;;;;;;;11.85;2.83;;;19.30;99.90;;;;;;4992726;28;20096;-63
2022/08/30 07:31:03;;;;;;;5.95;2.90;;;19.70;99.90;;;;;;4993230;28;20049;-64
2022/08/30 07:33:29;;;;;;;8.45;3.00;;;19.50;99.90;;;;;;4990882;28;20037;-63
2022/08/30 07:35:54;;;;;;;7.03;2.88;;;19.70;99.90;;;;;;4989366;28;20396;-63
2022/08/30 07:38:20;;;;;;;5.82;2.70;;;19.90;99.90;;;;;;4995121;28;20095;-63
2022/08/30 07:40:46;;;;;;;7.18;2.42;;;19.80;99.90;;;;;;4981371;28;20410;-63
2022/08/30 07:43:11;;;;;;;5.13;2.42;;;19.90;99.90;;;;;;4992865;28;20035;-63
2022/08/30 07:45:37;;;;;;;6.47;2.35;;;20.40;99.90;;;;;;4996717;28;20129;-63
2022/08/30 07:48:04;;;;;;;5.22;2.55;;;20.80;99.90;;;;;;5006830;28;20069;-64
2022/08/30 07:50:30;;;;;;;4.85;2.33;;;21.00;99.90;;;;;;4990548;28;20420;-64
2022/08/30 07:52:55;;;;;;;4.20;2.70;;;21.40;99.90;;;;;;4992909;28;20042;-64
2022/08/30 07:55:21;;;;;;;3.65;2.20;;;21.90;99.90;;;;;;4991247;28;20117;-64
2022/08/30 07:57:47;;;;;;;5.97;2.08;;;22.10;99.90;;;;;;4990054;28;20037;-64
2022/08/30 08:00:13;;;;;;;5.13;2.30;;;22.30;99.90;;;;;;4991362;28;20034;-64
2022/08/30 08:02:40;;;;;;;6.68;2.08;;;22.40;99.90;;;;;;4985865;28;20109;-64
2022/08/30 08:05:07;;;;;;;3.22;1.90;;;22.70;99.90;;;;;;4989346;28;20072;-64
2022/08/30 08:07:33;;;;;;;2.67;1.85;;;22.70;99.90;;;;;;4990753;28;20044;-64
2022/08/30 08:09:59;;;;;;;6.13;1.92;;;22.70;99.90;;;;;;4990982;28;20054;-64
2022/08/30 08:12:25;;;;;;;3.25;1.70;;;22.50;99.90;;;;;;4991695;28;20105;-64
2022/08/30 08:14:51;;;;;;;3.17;1.75;;;22.70;99.90;;;;;;4990417;28;20046;-63
2022/08/30 08:17:17;;;;;;;5.90;1.85;;;23.00;99.90;;;;;;4991411;28;20038;-64
2022/08/30 08:19:43;;;;;;;4.13;1.58;;;23.10;1.00;;;;;;4990672;28;20092;-64
2022/08/30 08:22:08;;;;;;;4.65;1.88;;;23.20;99.90;;;;;;4986030;28;20057;-64
2022/08/30 08:24:34;;;;;;;5.55;1.55;;;23.40;1.00;;;;;;4991763;28;20038;-64
2022/08/30 08:27:00;;;;;;;2.70;1.73;;;23.50;1.00;;;;;;4991657;28;20515;-64
2022/08/30 08:29:26;;;;;;;5.30;1.90;;;23.70;1.00;;;;;;4989787;28;20188;-64
2022/08/30 08:31:53;;;;;;;2.05;1.42;;;23.40;99.90;;;;;;4991675;28;20054;-64
2022/08/30 08:34:22;;;;;;;4.05;1.33;;;23.20;1.00;;;;;;4991695;28;20038;-64
2022/08/30 08:36:49;;;;;;;4.75;1.83;;;23.00;99.90;;;;;;4987528;28;20050;-63
2022/08/30 08:39:14;;;;;;;9.50;1.63;;;23.10;99.90;;;;;;4991059;28;20739;-64
2022/08/30 08:42:06;;;;;;;2.97;1.75;;;23.60;99.90;;;;;;4991523;28;20038;-64
2022/08/30 08:44:55;;;;;;;5.25;1.70;;;23.70;1.00;;;;;;4988296;28;20065;-67
2022/08/30 08:47:39;;;;;;;3.58;1.70;;;23.60;99.90;;;;;;4981685;28;20046;-64
2022/08/30 08:50:09;;;;;;;3.10;1.52;;;23.70;99.90;;;;;;4995355;28;20181;-64
2022/08/30 08:55:49;;;;;;;5.32;1.65;;;24.10;99.90;;;;;;5010444;28;20054;-64
2022/08/30 08:58:24;;;;;;;2.47;1.50;;;24.00;1.00;;;;;;4995189;28;20081;-64
2022/08/30 09:00:50;;;;;;;3.50;2.22;;;24.10;1.00;;;;;;4993381;28;20086;-64
2022/08/30 09:03:19;;;;;;;4.95;1.80;;;24.40;1.00;;;;;;4994185;28;20035;-64
2022/08/30 09:05:46;;;;;;;13.00;2.55;;;24.60;1.00;;;;;;4994721;28;20100;-64
2022/08/30 09:08:14;;;;;;;4.20;1.75;;;24.40;1.00;;;;;;5001321;28;20061;-64
2022/08/30 09:11:00;;;;;;;5.88;2.20;;;24.70;1.00;;;;;;4994984;28;20059;-64
2022/08/30 09:13:26;;;;;;;;;;;25.00;1.00;;;;;;4994264;28;20046;-64
2022/08/30 09:15:54;;;;;;;8.88;2.42;;;24.80;99.90;;;;;;4994557;28;19928;-64
2022/08/30 09:18:38;;;;;;;6.40;1.90;;;24.40;99.90;;;;;;4991081;28;20046;-64
2022/08/30 09:21:07;;;;;;;5.35;2.00;;;24.10;99.90;;;;;;4994426;28;20036;-64
2022/08/30 09:23:33;;;;;;;4.85;1.60;;;24.30;99.90;;;;;;4993576;28;20077;-64
2022/08/30 09:26:06;;;;;;;2.30;1.80;;;24.20;99.90;;;;;;4993408;28;20077;-64
2022/08/30 09:28:46;;;;;;;6.20;2.35;;;24.00;99.90;;;;;;4994627;28;20100;-64
2022/08/30 09:31:22;;;;;;;2.28;1.58;;;23.90;99.90;;;;;;4994852;28;20043;-64
2022/08/30 09:33:55;;;;;;;1.77;1.35;;;24.50;99.90;;;;;;4994332;28;20046;-64
2022/08/30 09:36:31;;;;;;;6.00;1.70;;;24.50;99.90;;;;;;4994681;28;20118;-64
2022/08/30 09:39:12;;;;;;;3.03;1.60;;;24.10;99.90;;;;;;4991026;28;20408;-64
2022/08/30 09:41:41;;;;;;;1.70;1.60;;;23.80;99.90;;;;;;4994058;28;20038;-64
2022/08/30 09:44:17;;;;;;;4.25;1.90;;;23.80;99.90;;;;;;4986675;28;20044;-64
2022/08/30 09:46:57;;;;;;;3.67;1.60;;;23.60;99.90;;;;;;4991125;28;20459;-64
2022/08/30 09:49:38;;;;;;;2.47;1.63;;;24.00;99.90;;;;;;4993086;28;20049;-64
2022/08/30 09:52:15;;;;;;;3.00;1.65;;;24.40;99.90;;;;;;4994057;28;20075;-64
2022/08/30 09:54:53;;;;;;;7.38;1.88;;;23.90;99.90;;;;;;4993099;28;20503;-64
2022/08/30 09:57:58;;;;;;;4.88;1.65;;;23.60;99.90;;;;;;4990904;28;20468;-64
2022/08/30 10:00:30;;;;;;;4.38;1.85;;;23.30;99.90;;;;;;4993682;28;20128;-64
2022/08/30 10:03:11;;;;;;;2.92;1.67;;;23.30;99.90;;;;;;4993836;28;20034;-64
2022/08/30 10:05:48;;;;;;;3.78;1.75;;;23.10;99.90;;;;;;4993987;28;20034;-64
2022/08/30 10:08:40;;;;;;;4.30;1.67;;;23.00;99.90;;;;;;4991898;28;20073;-64
2022/08/30 10:11:05;;;;;;;5.90;1.75;;;23.20;99.90;;;;;;4990557;28;20113;-64
2022/08/30 10:14:04;;;;;;;6.88;1.80;;;23.30;99.90;;;;;;4992721;28;20050;-64
2022/08/30 10:16:46;;;;;;;10.48;1.55;;;23.20;99.90;;;;;;4959270;28;20043;-64
2022/08/30 10:19:31;;;;;;;5.63;1.60;;;23.00;99.90;;;;;;4992918;28;20046;-64
2022/08/30 10:22:07;;;;;;;6.05;2.03;;;22.90;99.90;;;;;;4993995;28;20041;-64
2022/08/30 10:24:44;;;;;;;9.13;2.00;;;22.80;99.90;;;;;;4993843;28;20097;-64
2022/08/30 10:27:20;;;;;;;2.95;1.50;;;22.80;99.90;;;;;;4993596;28;20566;-64
2022/08/30 10:29:52;;;;;;;7.13;1.88;;;23.00;99.90;;;;;;4992222;28;20034;-65
2022/08/30 10:32:28;;;;;;;5.20;1.60;;;23.00;99.90;;;;;;4992948;28;20498;-64
2022/08/30 10:35:02;;;;;;;4.70;1.60;;;22.90;99.90;;;;;;4987274;28;20115;-64
2022/08/30 10:37:33;;;;;;;2.10;1.52;;;22.80;99.90;;;;;;4991813;28;20129;-64
2022/08/30 10:42:57;;;;;;;3.65;1.70;;;22.50;99.90;;;;;;4989742;28;20077;-64
2022/08/30 10:45:24;;;;;;;4.07;1.60;;;22.40;99.90;;;;;;4991810;28;20515;-64
2022/08/30 10:48:04;;;;;;;4.82;1.77;;;22.30;99.90;;;;;;4993010;28;20046;-64
2022/08/30 10:50:34;;;;;;;3.55;1.50;;;22.10;99.90;;;;;;4985483;28;20097;-64
2022/08/30 10:53:10;;;;;;;4.40;1.27;;;22.10;99.90;;;;;;4992332;28;20038;-65
2022/08/30 10:55:44;;;;;;;2.25;1.48;;;22.30;99.90;;;;;;4992747;28;20042;-64
2022/08/30 10:58:10;;;;;;;4.95;1.45;;;22.20;99.90;;;;;;4993086;28;20046;-64
2022/08/30 11:01:14;;;;;;;3.20;1.20;;;22.30;99.90;;;;;;4992602;28;20062;-64
2022/08/30 11:03:51;;;;;;;2.65;1.48;;;22.30;99.90;;;;;;4992112;28;20034;-64
2022/08/30 11:06:43;;;;;;;3.88;1.38;;;22.30;93.40;;;;;;4988346;28;20045;-64
2022/08/30 11:09:46;;;;;;;10.35;1.80;;;22.40;97.50;;;;;;4991912;28;20046;-64
2022/08/30 11:12:22;;;;;;;1.80;1.45;;;22.50;99.90;;;;;;4991584;28;20111;-64
2022/08/30 11:14:48;;;;;;;2.03;1.48;;;22.40;99.90;;;;;;4990949;28;20097;-65
2022/08/30 11:17:39;;;;;;;3.97;1.42;;;22.40;99.90;;;;;;4990982;28;20034;-65
2022/08/30 11:20:29;;;;;;;4.55;1.65;;;22.50;93.90;;;;;;4991488;28;20053;-64
2022/08/30 11:23:28;;;;;;;2.15;1.33;;;22.20;89.10;;;;;;4991388;28;20113;-64
2022/08/30 11:26:04;;;;;;;4.07;1.35;;;22.30;63.40;;;;;;4983751;28;20082;-64
2022/08/30 11:28:36;;;;;;;2.05;1.02;;;22.40;47.50;;;;;;4988228;28;20511;-64
2022/08/30 11:31:29;;;;;;;1.67;1.27;;;22.40;32.00;;;;;;4984697;28;20050;-64
2022/08/30 11:33:58;;;;;;;4.53;1.52;;;22.40;9.10;;;;;;4987932;28;20134;-64
2022/08/30 11:36:31;;;;;;;1.27;1.13;;;22.30;1.00;;;;;;4991386;28;20034;-64
2022/08/30 11:39:02;;;;;;;7.90;1.52;;;22.30;9.90;;;;;;4991602;28;20035;-64
2022/08/30 11:41:36;;;;;;;2.28;1.15;;;22.40;10.30;;;;;;4991934;28;20034;-64
2022/08/30 11:44:22;;;;;;;2.95;1.35;;;22.30;3.60;;;;;;4991407;28;20030;-64
2022/08/30 11:46:51;;;;;;;4.45;1.35;;;22.20;1.00;;;;;;4991790;28;20053;-64
2022/08/30 11:49:17;;;;;;;3.42;1.27;;;22.20;1.00;;;;;;4992011;28;20035;-65
2022/08/30 11:52:04;;;;;;;6.53;1.20;;;22.20;1.00;;;;;;4991881;28;20061;-64
2022/08/30 11:54:42;;;;;;;1.60;1.13;;;22.20;1.00;;;;;;4991425;28;20125;-65
2022/08/30 11:57:38;;;;;;;1.90;1.13;;;22.30;1.00;;;;;;4991408;28;20488;-64
2022/08/30 12:00:24;;;;;;;5.40;1.50;;;22.40;1.00;;;;;;4992117;28;20104;-64
2022/08/30 12:02:58;;;;;;;;;;;22.30;1.00;;;;;;4991447;28;20094;-64
2022/08/30 12:05:45;;;;;;;2.08;1.15;;;22.40;1.00;;;;;;4990828;28;19930;-64
2022/08/30 12:08:19;;;;;;;15.05;1.55;;;22.40;1.00;;;;;;4988081;28;20034;-64
2022/08/30 12:11:13;;;;;;;5.25;1.38;;;22.30;1.00;;;;;;4990363;28;20081;-65
2022/08/30 12:13:41;;;;;;;9.18;1.40;;;22.30;1.00;;;;;;4985882;28;20551;-64
2022/08/30 12:16:13;;;;;;;3.35;1.67;;;22.20;1.00;;;;;;4989608;28;20077;-64
2022/08/30 12:18:59;;;;;;;2.17;1.10;;;22.20;1.00;;;;;;4986798;28;20038;-65
2022/08/30 12:21:27;;;;;;;;;;;22.20;1.00;;;;;;4992370;28;20042;-64
2022/08/30 12:24:31;;;;;;;7.30;1.75;;;22.30;1.00;;;;;;4995285;28;19918;-64
2022/08/30 12:26:58;;;;;;;8.32;1.73;;;22.30;1.00;;;;;;4980579;28;20125;-64
2022/08/30 12:29:29;;;;;;;12.18;1.58;;;22.50;1.00;;;;;;4987228;28;20408;-64
2022/08/30 12:32:00;;;;;;;5.53;1.60;;;22.60;1.00;;;;;;4993326;28;20049;-64
2022/08/30 12:34:35;;;;;;;13.07;2.53;;;22.60;1.00;;;;;;4993953;28;20729;-65
2022/08/30 12:37:18;;;;;;;2.25;1.30;;;22.60;1.00;;;;;;4994779;28;20026;-64
2022/08/30 12:39:45;;;;;;;7.82;1.92;;;22.50;1.00;;;;;;5002254;28;20065;-62
2022/08/30 12:42:25;;;;;;;3.45;1.40;;;22.30;1.00;;;;;;4994924;28;20100;-65
2022/08/30 12:44:53;;;;;;;5.80;1.20;;;22.30;1.00;;;;;;4994882;28;20050;-65
2022/08/30 12:47:27;;;;;;;9.85;2.22;;;22.30;1.00;;;;;;4994653;28;20039;-65
2022/08/30 12:49:54;;;;;;;12.45;1.75;;;22.40;1.00;;;;;;4995779;28;20050;-65
2022/08/30 12:52:30;;;;;;;4.90;1.23;;;22.40;1.00;;;;;;4995669;28;20488;-65
2022/08/30 12:55:05;;;;;;;;;;;22.30;1.00;;;;;;4995258;28;20161;-65
2022/08/30 12:57:43;;;;;;;7.07;1.80;;;22.30;1.00;;;;;;4994979;28;20000;-65
2022/08/30 13:00:23;;;;;;;4.53;1.10;;;22.20;1.00;;;;;;4994184;28;20038;-65
2022/08/30 13:02:53;;;;;;;4.40;1.50;;;22.30;1.00;;;;;;4995592;28;20034;-65
2022/08/30 13:05:38;;;;;;;3.10;1.20;;;22.20;1.00;;;;;;4994902;28;20034;-65
2022/08/30 13:08:08;;;;;;;16.00;1.98;;;22.20;1.00;;;;;;4993519;28;20132;-65
2022/08/30 13:10:34;;;;;;;3.72;1.38;;;22.20;1.00;;;;;;4993577;28;20173;-65
2022/08/30 13:13:03;;;;;;;2.63;1.42;;;22.20;1.00;;;;;;4993740;28;20506;-65